Time;durP1;ratioP1;P1;durP2;ratioP2;P2;SDS_P1;SDS_P2;PMS_P1;PMS_P2;Temp;Humidity;BMP_temperature;BMP_pressure;BME280_temperature;BME280_humidity;BME280_pressure;Samples;Min_cycle;Max_cycle;Signal;HPM_P1;HPM_P2
2023/10/05 00:00:46;;;;;;;;;;;17.90;49.40;;;17.02;51.64;101806.38;12275379;19;19918;-84
2023/10/05 00:04:50;;;;;;;;;;;17.90;49.40;;;16.96;51.70;101790.94;12278234;19;19927;-84
2023/10/05 00:08:54;;;;;;;;;;;17.80;49.30;;;16.54;51.69;101725.94;12273310;19;19947;-84
2023/10/05 00:13:00;;;;;;;;;;;17.80;49.40;;;16.88;51.56;101790.59;12276277;19;19942;-84
2023/10/05 00:17:04;;;;;;;;;;;17.80;49.50;;;16.78;51.74;101792.13;12279558;19;19982;-84
2023/10/05 00:21:07;;;;;;;;;;;17.70;49.40;;;16.80;51.64;101793.72;12277716;19;20372;-83
2023/10/05 00:25:14;;;;;;;;;;;17.60;49.40;;;16.77;51.72;101790.47;12276753;19;20381;-85
2023/10/05 00:29:27;;;;;;;;;;;17.60;49.40;;;16.71;52.01;101786.34;12271101;19;20308;-85
2023/10/05 00:33:28;;;;;;;;;;;17.60;49.50;;;16.70;51.81;101797.03;12274405;19;19931;-84
2023/10/05 00:37:30;;;;;;;;;;;17.50;49.50;;;16.67;51.87;101805.13;12275015;19;19926;-85
2023/10/05 00:41:31;;;;;;;;;;;17.50;49.50;;;16.52;51.99;101784.03;12275254;19;19955;-84
2023/10/05 00:45:33;;;;;;;;;;;17.50;49.50;;;16.55;51.89;101775.97;12273786;19;19927;-84
2023/10/05 00:53:46;;;;;;;;;;;17.40;49.50;;;16.50;52.06;101779.81;12271158;19;19923;-84
2023/10/05 00:57:48;;;;;;;;;;;17.40;49.50;;;16.44;51.86;101773.13;12272776;19;19999;-84
2023/10/05 01:06:26;;;;;;;;;;;17.30;49.60;;;16.40;51.84;101768.19;12273807;19;19918;-84
2023/10/05 01:10:40;;;;;;;;;;;17.30;49.60;;;16.42;51.99;101768.91;12270295;19;19919;-82
2023/10/05 01:14:50;;;;;;;;;;;17.30;49.60;;;16.35;52.02;101766.66;12271081;19;19923;-84
2023/10/05 01:18:52;;;;;;;;;;;17.30;49.60;;;16.23;52.14;101750.75;12272823;19;19930;-83
2023/10/05 01:22:55;;;;;;;;;;;17.20;49.60;;;16.29;51.93;101750.41;12272455;19;19911;-83
2023/10/05 01:26:57;;;;;;;;;;;17.20;49.60;;;16.37;51.98;101754.25;12274977;19;19914;-84
2023/10/05 01:30:58;;;;;;;;;;;17.20;49.60;;;16.35;51.95;101742.94;12268830;19;19935;-84
2023/10/05 01:35:05;;;;;;;;;;;17.20;49.60;;;16.35;51.78;101732.38;12271076;19;19951;-84
2023/10/05 01:39:09;;;;;;;;;;;17.20;49.70;;;16.31;52.07;101715.09;12269010;19;19927;-83
2023/10/05 01:43:12;;;;;;;;;;;17.20;49.60;;;16.26;52.10;101717.16;12267626;19;19945;-82
2023/10/05 01:47:17;;;;;;;;;;;17.10;49.70;;;16.22;52.03;101702.47;12268702;19;19931;-84
2023/10/05 01:51:26;;;;;;;;;;;17.10;49.70;;;16.17;52.10;101695.81;12265183;19;19915;-83
2023/10/05 01:55:30;;;;;;;;;;;17.10;49.80;;;16.19;52.06;101710.59;12269873;19;19915;-84
2023/10/05 01:59:34;;;;;;;;;;;17.10;49.70;;;16.02;52.00;101687.09;12270296;19;20426;-83
2023/10/05 02:03:36;;;;;;;;;;;17.00;49.70;;;16.10;52.11;101717.28;12274152;19;19947;-84
2023/10/05 02:07:38;;;;;;;;;;;17.00;49.80;;;16.03;52.21;101696.69;12272359;19;20028;-83
2023/10/05 02:11:43;;;;;;;;;;;17.00;49.80;;;16.07;52.27;101711.38;12272831;19;19923;-82
2023/10/05 02:15:52;;;;;;;;;;;17.00;49.80;;;16.01;52.19;101703.81;12268069;19;19923;-84
2023/10/05 02:19:54;;;;;;;;;;;17.00;49.80;;;16.04;52.14;101701.88;12267447;19;20377;-84
2023/10/05 02:24:10;;;;;;;;;;;16.90;49.80;;;16.01;52.03;101699.41;12269755;19;19926;-84
2023/10/05 02:28:23;;;;;;;;;;;16.90;49.80;;;16.01;52.20;101709.94;12273295;19;19919;-83
2023/10/05 02:32:27;;;;;;;;;;;16.90;49.80;;;15.99;52.23;101698.66;12280676;19;20294;-84
2023/10/05 02:36:30;;;;;;;;;;;16.90;49.80;;;15.72;52.40;101645.91;12283311;19;19923;-84
2023/10/05 02:40:39;;;;;;;;;;;16.90;50.10;;;15.88;52.24;101661.63;12277582;19;19915;-84
2023/10/05 02:44:45;;;;;;;;;;;16.90;50.00;;;15.92;52.07;101676.28;12283420;19;19926;-84
2023/10/05 02:48:47;;;;;;;;;;;16.90;49.90;;;15.97;52.40;101668.94;12275535;19;19915;-83
2023/10/05 02:52:49;;;;;;;;;;;16.90;50.00;;;15.96;52.33;101675.16;12282463;19;20350;-83
2023/10/05 02:56:54;;;;;;;;;;;16.80;49.90;;;15.90;52.38;101665.84;12281134;19;19940;-83
2023/10/05 03:00:58;;;;;;;;;;;16.90;49.90;;;15.93;52.22;101675.31;12273910;19;19921;-84
2023/10/05 03:05:02;;;;;;;;;;;16.80;49.90;;;15.77;52.37;101635.94;12279750;19;19931;-84
2023/10/05 03:09:07;;;;;;;;;;;16.80;49.90;;;15.88;52.28;101654.56;12279212;19;19935;-84
2023/10/05 03:13:12;;;;;;;;;;;16.80;49.90;;;15.76;52.48;101628.97;12279192;19;19926;-83
2023/10/05 03:17:18;;;;;;;;;;;16.70;49.90;;;15.86;52.33;101659.06;12277888;19;19931;-84
2023/10/05 03:21:21;;;;;;;;;;;16.80;49.90;;;15.84;52.36;101654.84;12280098;19;20263;-83
2023/10/05 03:25:23;;;;;;;;;;;16.70;49.90;;;15.77;52.38;101643.84;12277344;19;19931;-83
2023/10/05 03:29:25;;;;;;;;;;;16.70;50.10;;;15.85;52.31;101653.88;12278614;19;19919;-84
2023/10/05 03:33:30;;;;;;;;;;;16.70;50.00;;;15.81;52.30;101647.97;12277670;19;19949;-83
2023/10/05 03:37:31;;;;;;;;;;;16.80;50.00;;;15.84;52.38;101644.28;12276898;19;19925;-83
2023/10/05 03:41:34;;;;;;;;;;;16.70;50.00;;;15.84;52.37;101650.41;12277575;19;19933;-84
2023/10/05 03:45:38;;;;;;;;;;;16.80;50.00;;;15.87;52.41;101644.09;12279292;19;19947;-84
2023/10/05 03:49:56;;;;;;;;;;;16.80;50.00;;;15.87;52.37;101644.94;12277270;19;19943;-83
2023/10/05 03:53:59;;;;;;;;;;;16.80;50.00;;;15.86;52.47;101650.31;12278171;19;20479;-83
2023/10/05 03:58:01;;;;;;;;;;;16.80;50.00;;;15.80;52.50;101643.66;12279897;19;19944;-82
2023/10/05 04:02:06;;;;;;;;;;;16.80;50.00;;;15.84;52.53;101639.03;12279670;19;19927;-83
2023/10/05 04:06:17;;;;;;;;;;;16.80;50.00;;;15.83;52.47;101630.28;12269790;19;19919;-84
2023/10/05 04:10:23;;;;;;;;;;;16.80;50.00;;;15.86;52.69;101637.16;12274562;19;19974;-83
2023/10/05 04:14:26;;;;;;;;;;;16.80;50.00;;;15.84;52.58;101618.78;12275863;19;19982;-84
2023/10/05 04:18:29;;;;;;;;;;;16.80;50.40;;;15.82;52.45;101618.03;12277026;19;19915;-84
2023/10/05 04:22:35;;;;;;;;;;;16.80;50.00;;;15.82;52.54;101614.56;12273435;19;20229;-83
2023/10/05 04:26:37;;;;;;;;;;;16.80;50.10;;;15.78;52.67;101613.94;12253507;19;19935;-83
2023/10/05 04:30:39;;;;;;;;;;;16.70;50.00;;;15.79;52.51;101610.34;12262655;19;19919;-83
2023/10/05 04:34:40;;;;;;;;;;;16.70;50.20;;;15.79;52.56;101605.06;12267189;19;19946;-82
2023/10/05 04:38:43;;;;;;;;;;;16.70;50.10;;;15.52;52.60;101560.22;12268561;19;19935;-84
2023/10/05 04:42:45;;;;;;;;;;;16.70;50.10;;;15.73;52.63;101591.47;12268748;19;19907;-83
2023/10/05 04:46:49;;;;;;;;;;;16.80;50.20;;;15.65;52.77;101587.47;12267095;19;19942;-83
2023/10/05 04:50:51;;;;;;;;;;;16.70;50.10;;;15.75;52.54;101589.59;12264402;19;19910;-83
2023/10/05 04:54:57;;;;;;;;;;;16.70;50.40;;;15.76;52.64;101578.94;12266150;19;20340;-83
2023/10/05 05:03:34;;;;;;;;;;;16.70;50.10;;;15.77;52.64;101591.19;12270044;19;19926;-84
2023/10/05 05:07:36;;;;;;;;;;;16.70;50.30;;;15.79;52.75;101583.16;12267736;19;19974;-84
2023/10/05 05:11:40;;;;;;;;;;;16.70;50.20;;;15.78;52.58;101566.53;12265649;19;19923;-84
2023/10/05 05:15:42;;;;;;;;;;;16.70;50.20;;;15.78;52.74;101569.16;12266718;19;19925;-83
2023/10/05 05:19:44;;;;;;;;;;;16.70;50.20;;;15.68;52.72;101554.84;12264796;19;20374;-84
2023/10/05 05:23:49;;;;;;;;;;;16.70;50.10;;;15.74;52.82;101561.53;12264290;19;19911;-83
2023/10/05 05:27:50;;;;;;;;;;;16.70;50.70;;;15.57;52.64;101542.34;12266248;19;20335;-84
2023/10/05 05:31:52;;;;;;;;;;;16.70;50.30;;;15.55;52.66;101530.22;12265179;19;19958;-83
2023/10/05 05:35:54;;;;;;;;;;;16.70;50.30;;;15.68;52.83;101541.69;12263264;19;19943;-83
2023/10/05 05:39:57;;;;;;;;;;;16.70;50.20;;;15.72;52.94;101545.00;12261669;19;20423;-83
2023/10/05 05:43:59;;;;;;;;;;;16.70;50.20;;;15.73;52.74;101549.31;12262849;19;19933;-83
2023/10/05 05:48:08;;;;;;;;;;;16.70;50.20;;;15.69;52.84;101540.78;12265622;19;19923;-82
2023/10/05 05:52:11;;;;;;;;;;;16.80;50.50;;;15.76;52.63;101546.50;12262829;19;19922;-82
2023/10/05 05:56:19;;;;;;;;;;;16.70;50.30;;;15.76;53.01;101547.34;12261547;19;19919;-84
2023/10/05 06:00:20;;;;;;;;;;;16.70;50.40;;;15.75;52.86;101550.09;12254940;19;20606;-83
2023/10/05 06:04:22;;;;;;;;;;;16.80;50.40;;;15.76;52.69;101552.59;12256439;19;19931;-84
2023/10/05 06:08:24;;;;;;;;;;;16.70;50.30;;;15.72;52.78;101545.84;12253730;19;19938;-82
2023/10/05 06:12:26;;;;;;;;;;;16.80;50.40;;;15.75;53.17;101556.19;12252345;19;19931;-82
2023/10/05 06:16:30;;;;;;;;;;;16.80;50.40;;;15.83;52.96;101564.44;12250845;19;19945;-84
2023/10/05 06:20:32;;;;;;;;;;;16.80;50.50;;;15.86;52.73;101573.94;12255079;19;19919;-84
2023/10/05 06:24:35;;;;;;;;;;;16.80;50.50;;;15.67;52.91;101532.09;12257400;19;19927;-83
2023/10/05 06:28:37;;;;;;;;;;;16.80;50.40;;;15.86;53.10;101553.72;12245567;19;19928;-82
2023/10/05 06:32:38;;;;;;;;;;;16.90;50.40;;;15.93;52.85;101559.41;12260842;19;20297;-83
2023/10/05 06:36:41;;;;;;;;;;;16.90;50.50;;;15.84;52.97;101550.31;12260934;19;19938;-83
2023/10/05 06:40:42;;;;;;;;;;;16.90;50.50;;;15.88;52.97;101540.44;12254568;19;20330;-84
2023/10/05 06:44:44;;;;;;;;;;;16.90;50.50;;;15.95;53.20;101551.44;12242662;19;19927;-83
2023/10/05 06:48:49;;;;;;;;;;;17.00;50.70;;;16.03;52.83;101570.22;12246849;19;19926;-83
2023/10/05 06:52:52;;;;;;;;;;;17.00;50.70;;;16.04;53.16;101561.34;12242980;19;19931;-83
2023/10/05 06:56:55;;;;;;;;;;;17.00;50.50;;;16.06;53.21;101548.94;12243531;19;19907;-82
2023/10/05 07:00:56;;;;;;;;;;;17.10;50.60;;;16.14;52.95;101551.91;12239318;19;19922;-83
2023/10/05 07:04:58;;;;;;;;;;;17.10;50.60;;;16.17;53.08;101559.63;12237163;19;20364;-82
2023/10/05 07:08:59;;;;;;;;;;;17.20;50.70;;;16.24;53.06;101563.53;12234880;19;20329;-82
2023/10/05 07:13:01;;;;;;;;;;;17.20;51.10;;;16.16;53.02;101547.41;12244106;19;19918;-82
2023/10/05 07:17:02;;;;;;;;;;;17.30;51.00;;;16.33;53.06;101567.34;12255360;19;19931;-82
2023/10/05 07:21:04;;;;;;;;;;;17.30;50.80;;;16.35;53.04;101568.13;12258542;19;19933;-82
2023/10/05 07:25:14;;;;;;;;;;;17.40;50.80;;;16.40;53.14;101573.94;12255110;19;19925;-84
2023/10/05 07:29:15;;;;;;;;;;;17.40;50.90;;;16.48;53.09;101574.25;12263179;19;19925;-84
2023/10/05 07:33:17;;;;;;;;;;;17.50;50.90;;;16.42;53.34;101553.59;12263870;19;20014;-84
2023/10/05 07:37:18;;;;;;;;;;;17.50;50.80;;;16.56;53.21;101568.47;12250746;19;19918;-82
2023/10/05 07:41:20;;;;;;;;;;;17.60;50.90;;;16.63;53.21;101575.00;12256163;19;19919;-82
2023/10/05 07:45:22;;;;;;;;;;;17.60;50.90;;;16.54;53.23;101552.75;12248644;19;19919;-83
2023/10/05 07:49:24;;;;;;;;;;;17.70;50.80;;;16.78;53.14;101591.66;12256025;19;20370;-82
2023/10/05 07:53:26;;;;;;;;;;;17.80;50.80;;;16.83;53.25;101594.00;12257171;19;19953;-81
2023/10/05 07:57:27;;;;;;;;;;;17.80;50.70;;;16.86;53.22;101602.53;12256641;19;19915;-82
2023/10/05 08:01:29;;;;;;;;;;;17.90;50.80;;;16.96;53.12;101602.75;12257805;19;19926;-82
2023/10/05 08:05:31;;;;;;;;;;;18.00;51.20;;;17.04;53.21;101613.63;12256787;19;19987;-82
2023/10/05 08:09:32;;;;;;;;;;;18.00;50.90;;;17.13;53.47;101610.34;12251366;19;19925;-82
2023/10/05 08:13:34;;;;;;;;;;;18.10;50.90;;;17.15;53.21;101605.81;12258276;19;19923;-82
2023/10/05 08:17:36;;;;;;;;;;;18.20;50.90;;;17.32;53.43;101619.66;12251164;19;19923;-83
2023/10/05 08:21:38;;;;;;;;;;;18.30;50.80;;;17.40;53.18;101604.13;12255682;19;19919;-83
2023/10/05 08:25:39;;;;;;;;;;;18.50;50.90;;;17.46;53.24;101606.31;12250858;19;20330;-81
2023/10/05 08:29:42;;;;;;;;;;;18.60;50.90;;;17.66;53.47;101615.47;12255240;19;19923;-84
2023/10/05 08:33:44;;;;;;;;;;;18.70;50.90;;;17.71;53.33;101621.28;12252890;19;19919;-82
2023/10/05 08:37:49;;;;;;;;;;;18.80;50.80;;;17.82;53.39;101620.53;12256655;19;19922;-83
2023/10/05 08:41:55;;;;;;;;;;;18.90;50.80;;;17.92;53.15;101622.41;12257827;19;19919;-82
2023/10/05 08:46:03;;;;;;;;;;;19.00;50.60;;;17.99;53.13;101636.06;12258088;19;20008;-82
2023/10/05 08:50:06;;;;;;;;;;;19.10;50.60;;;17.99;53.28;101636.06;12250485;19;19918;-82
2023/10/05 08:54:11;;;;;;;;;;;19.10;50.50;;;18.02;53.45;101624.41;12249490;19;19940;-82
2023/10/05 08:58:18;;;;;;;;;;;19.20;50.50;;;18.10;53.34;101620.25;12253972;19;19929;-82
2023/10/05 09:02:21;;;;;;;;;;;19.20;50.40;;;18.18;53.26;101630.28;12249426;19;20354;-83
2023/10/05 09:06:24;;;;;;;;;;;19.20;50.40;;;18.17;53.38;101617.16;12255943;19;20290;-82
2023/10/05 09:10:26;;;;;;;;;;;19.30;50.20;;;18.26;53.29;101630.56;12249660;19;20381;-83
2023/10/05 09:14:28;;;;;;;;;;;19.30;50.30;;;18.34;53.19;101617.63;12253431;19;19939;-82
2023/10/05 09:18:29;;;;;;;;;;;19.40;50.30;;;18.35;53.12;101615.81;12248498;19;19923;-82
2023/10/05 09:22:47;;;;;;;;;;;19.40;50.30;;;18.44;53.48;101630.97;12246470;19;19974;-82
2023/10/05 09:26:57;;;;;;;;;;;19.50;50.20;;;18.50;53.27;101632.38;12244791;19;20336;-82
2023/10/05 09:30:59;;;;;;;;;;;19.60;50.10;;;18.52;53.33;101607.50;12242787;19;20334;-81
2023/10/05 09:35:01;;;;;;;;;;;19.60;50.20;;;18.65;53.53;101612.69;12242242;19;19933;-82
2023/10/05 09:39:04;;;;;;;;;;;19.80;50.40;;;18.80;53.44;101621.31;12244844;19;19918;-82
2023/10/05 09:43:10;;;;;;;;;;;19.80;50.30;;;18.64;53.38;101579.25;12251228;19;19952;-84
2023/10/05 09:47:12;;;;;;;;;;;20.00;50.30;;;18.90;53.14;101617.00;12246420;19;19986;-82
2023/10/05 09:51:14;;;;;;;;;;;20.00;50.20;;;19.06;53.35;101623.75;12245790;19;19943;-82
2023/10/05 09:55:18;;;;;;;;;;;20.10;49.90;;;19.08;53.40;101617.38;12243428;19;20294;-82
2023/10/05 09:59:21;;;;;;;;;;;20.20;50.10;;;19.20;53.36;101642.09;12254939;19;19923;-83
2023/10/05 10:03:23;;;;;;;;;;;20.30;50.20;;;19.27;53.04;101645.09;12247243;19;19946;-82
2023/10/05 10:07:26;;;;;;;;;;;20.30;50.10;;;19.25;53.29;101631.97;12244415;19;19911;-81
2023/10/05 10:11:31;;;;;;;;;;;20.40;50.00;;;19.31;52.81;101636.81;12250647;19;19919;-82
2023/10/05 10:15:34;;;;;;;;;;;20.40;49.80;;;19.38;53.28;101635.34;12247945;19;19918;-81
2023/10/05 10:19:45;;;;;;;;;;;20.50;50.20;;;19.44;53.28;101653.44;12241528;19;20352;-83
2023/10/05 10:24:06;;;;;;;;;;;20.50;49.90;;;19.51;53.04;101652.94;12244750;19;20234;-83
2023/10/05 10:28:17;;;;;;;;;;;20.50;49.90;;;19.54;52.75;101648.25;12243910;19;19919;-83
2023/10/05 10:32:31;;;;;;;;;;;20.60;49.90;;;19.54;52.83;101647.41;12250578;19;19986;-84
2023/10/05 10:36:48;;;;;;;;;;;20.60;49.70;;;19.12;52.88;101573.84;12247488;19;20361;-85
2023/10/05 10:41:09;;;;;;;;;;;20.60;49.80;;;19.56;52.98;101656.09;12246695;19;19918;-82
2023/10/05 10:45:15;;;;;;;;;;;20.60;49.80;;;19.48;52.84;101639.94;12246359;19;19914;-83
2023/10/05 10:49:19;;;;;;;;;;;20.60;49.70;;;19.50;53.07;101644.16;12241973;19;19919;-82
2023/10/05 10:53:25;;;;;;;;;;;20.70;49.80;;;19.53;52.86;101657.16;12250211;19;20362;-82
2023/10/05 10:57:27;;;;;;;;;;;20.60;49.70;;;19.56;52.83;101662.22;12249884;19;19930;-83
2023/10/05 11:01:40;;;;;;;;;;;20.60;49.80;;;19.55;52.79;101663.19;12252408;19;19949;-82
2023/10/05 11:05:47;;;;;;;;;;;20.60;49.80;;;19.51;52.72;101658.25;12250795;19;19923;-83
2023/10/05 11:09:52;;;;;;;;;;;20.60;49.70;;;19.49;52.54;101660.16;12251119;19;19918;-84
2023/10/05 11:13:56;;;;;;;;;;;20.50;49.60;;;19.50;52.56;101673.31;12257957;19;19915;-84
2023/10/05 11:17:59;;;;;;;;;;;20.50;49.70;;;19.40;52.92;101665.22;12261937;19;19927;-83
2023/10/05 11:22:04;;;;;;;;;;;20.50;49.70;;;19.50;52.68;101683.06;12259171;19;19929;-82
2023/10/05 11:26:35;;;;;;;;;;;20.40;49.70;;;19.41;52.45;101666.91;12254924;19;20447;-85
2023/10/05 11:30:45;;;;;;;;;;;20.40;49.70;;;19.46;52.58;101693.88;12251916;19;19915;-84
2023/10/05 11:34:46;;;;;;;;;;;20.40;49.80;;;19.46;52.86;101691.22;12253732;19;19935;-84
2023/10/05 11:38:48;;;;;;;;;;;20.40;49.80;;;19.43;52.36;101696.78;12258185;19;19933;-85
2023/10/05 11:42:50;;;;;;;;;;;20.40;49.90;;;19.39;52.89;101705.09;12262178;19;19922;-84
2023/10/05 11:46:55;;;;;;;;;;;20.30;49.80;;;19.24;52.76;101681.44;12275405;19;20259;-85
2023/10/05 11:50:57;;;;;;;;;;;20.30;50.10;;;19.28;52.65;101695.31;12262064;19;19914;-84
2023/10/05 11:54:59;;;;;;;;;;;20.30;50.00;;;19.16;52.40;101675.06;12272599;19;19919;-84
2023/10/05 11:59:00;;;;;;;;;;;20.20;50.10;;;19.30;52.61;101695.19;12251308;19;19927;-86
2023/10/05 12:03:02;;;;;;;;;;;20.20;50.10;;;19.22;52.60;101695.75;12252847;19;19926;-83
2023/10/05 12:07:04;;;;;;;;;;;20.10;50.10;;;19.12;52.59;101700.94;12249804;19;20346;-84
2023/10/05 12:11:06;;;;;;;;;;;20.10;50.10;;;19.13;52.83;101705.25;12253138;19;19946;-83
2023/10/05 12:15:13;;;;;;;;;;;20.10;50.10;;;19.09;52.69;101717.06;12249037;19;19915;-84
2023/10/05 12:19:15;;;;;;;;;;;20.00;50.20;;;18.91;52.64;101692.81;12251466;19;19926;-84
2023/10/05 12:23:17;;;;;;;;;;;20.00;50.30;;;18.90;52.70;101698.19;12249816;19;20330;-84
2023/10/05 12:27:22;;;;;;;;;;;19.90;50.40;;;18.84;52.57;101688.06;12253063;19;19919;-84
2023/10/05 12:31:24;;;;;;;;;;;19.80;50.40;;;18.91;52.59;101702.56;12258312;19;19933;-83
2023/10/05 12:35:29;;;;;;;;;;;19.80;50.70;;;18.88;52.94;101693.03;12252541;19;19930;-84
2023/10/05 12:39:33;;;;;;;;;;;19.80;50.70;;;18.96;52.86;101695.94;12254026;19;19990;-84
2023/10/05 12:43:34;;;;;;;;;;;19.80;50.80;;;19.01;52.83;101699.09;12252637;19;19929;-84
2023/10/05 12:47:37;;;;;;;;;;;19.80;50.70;;;19.02;52.69;101690.19;12251430;19;19940;-82
2023/10/05 12:51:39;;;;;;;;;;;19.90;50.70;;;19.08;52.72;101690.69;12242341;19;19929;-82
2023/10/05 12:55:41;;;;;;;;;;;19.90;50.70;;;18.89;52.82;101664.75;12243569;19;19918;-83
2023/10/05 12:59:42;;;;;;;;;;;19.90;50.90;;;19.01;52.79;101683.22;12245905;19;19923;-83
2023/10/05 13:03:44;;;;;;;;;;;20.00;51.00;;;19.11;52.94;101693.09;12249350;19;20016;-83
2023/10/05 13:07:47;;;;;;;;;;;20.00;50.90;;;19.14;52.87;101708.75;12246751;19;19918;-83
2023/10/05 13:11:49;;;;;;;;;;;20.00;50.70;;;19.17;52.70;101705.88;12247831;19;19922;-83
2023/10/05 13:15:53;;;;;;;;;;;20.00;50.60;;;19.01;52.57;101690.31;12246845;19;19994;-82
2023/10/05 13:19:55;;;;;;;;;;;20.00;50.60;;;19.09;52.97;101705.59;12244352;19;19922;-82
2023/10/05 13:23:56;;;;;;;;;;;20.00;50.60;;;19.08;52.73;101711.88;12246282;19;19935;-82
2023/10/05 13:27:58;;;;;;;;;;;20.00;50.60;;;19.15;52.70;101729.00;12247787;19;19955;-82
2023/10/05 13:31:59;;;;;;;;;;;20.00;50.60;;;19.07;52.72;101720.78;12247425;19;19915;-84
2023/10/05 13:36:04;;;;;;;;;;;20.00;50.70;;;19.16;52.76;101765.94;12258171;19;19927;-82
2023/10/05 13:40:06;;;;;;;;;;;20.00;50.70;;;19.04;52.57;101771.28;12267379;19;19925;-84
2023/10/05 13:44:08;;;;;;;;;;;20.00;50.70;;;18.92;52.40;101788.94;12269294;19;19915;-85
2023/10/05 13:48:10;;;;;;;;;;;19.90;50.60;;;18.76;52.56;101789.22;12265581;19;20009;-84
2023/10/05 13:52:20;;;;;;;;;;;19.70;50.60;;;18.56;52.92;101782.69;12256836;19;19926;-83
2023/10/05 13:56:31;;;;;;;;;;;19.50;50.50;;;18.48;52.78;101780.59;12254612;19;19914;-83
2023/10/05 14:00:34;;;;;;;;;;;19.40;50.50;;;18.46;52.56;101782.50;12263839;19;19923;-83
2023/10/05 14:04:37;;;;;;;;;;;19.20;50.60;;;18.27;52.78;101777.66;12263161;19;19922;-84
2023/10/05 14:08:42;;;;;;;;;;;19.20;50.80;;;18.30;52.67;101789.84;12257497;19;19914;-85
2023/10/05 14:12:44;;;;;;;;;;;19.10;50.80;;;18.23;52.68;101770.94;12281444;19;19922;-85
2023/10/05 14:16:54;;;;;;;;;;;19.00;50.90;;;18.12;52.51;101753.19;12271551;19;19923;-84
2023/10/05 14:20:56;;;;;;;;;;;18.90;51.00;;;18.18;52.60;101782.78;12260284;19;20388;-85
2023/10/05 14:25:01;;;;;;;;;;;18.90;51.10;;;18.13;52.63;101770.72;12262245;19;19929;-84
2023/10/05 14:29:03;;;;;;;;;;;18.90;51.10;;;18.10;52.85;101762.16;12269469;19;20396;-84
2023/10/05 14:33:05;;;;;;;;;;;18.80;51.10;;;18.10;52.87;101770.94;12265893;19;19915;-85
2023/10/05 14:37:07;;;;;;;;;;;18.80;51.20;;;18.12;52.65;101773.50;12264092;19;20639;-83
2023/10/05 14:41:09;;;;;;;;;;;18.80;51.20;;;18.03;52.57;101761.72;12267773;19;19941;-84
2023/10/05 14:45:14;;;;;;;;;;;18.80;51.30;;;18.03;52.63;101764.38;12265118;19;19915;-85
2023/10/05 14:49:21;;;;;;;;;;;18.80;51.30;;;18.03;52.75;101767.03;12262328;19;19945;-84
2023/10/05 14:53:24;;;;;;;;;;;18.80;51.30;;;18.11;52.79;101788.47;12264676;19;20276;-84
2023/10/05 14:57:29;;;;;;;;;;;18.80;51.50;;;18.16;52.77;101789.97;12265591;19;19933;-84
2023/10/05 15:01:31;;;;;;;;;;;18.80;51.40;;;18.12;53.08;101790.19;12270132;19;19936;-84
2023/10/05 15:05:35;;;;;;;;;;;18.80;51.40;;;18.07;52.68;101779.09;12270075;19;19922;-85
2023/10/05 15:09:37;;;;;;;;;;;18.90;51.50;;;18.12;52.99;101794.63;12267959;19;19954;-84
2023/10/05 15:13:39;;;;;;;;;;;18.80;51.50;;;17.99;53.04;101778.78;12270102;19;19947;-84
2023/10/05 15:17:40;;;;;;;;;;;18.80;51.40;;;18.05;53.11;101783.63;12267068;19;19927;-85
2023/10/05 15:21:41;;;;;;;;;;;18.80;51.80;;;18.04;52.94;101781.09;12269815;19;19919;-84
2023/10/05 15:25:43;;;;;;;;;;;18.80;51.40;;;17.95;52.84;101772.00;12270444;19;19921;-83
2023/10/05 15:29:44;;;;;;;;;;;18.80;51.50;;;18.02;53.05;101793.59;12266906;19;19937;-85
2023/10/05 15:33:46;;;;;;;;;;;18.70;51.50;;;17.95;53.04;101773.81;12265713;19;19943;-84
2023/10/05 15:37:49;;;;;;;;;;;18.80;51.60;;;17.99;53.04;101799.91;12267330;19;19930;-84
2023/10/05 15:41:50;;;;;;;;;;;18.80;51.60;;;18.02;52.91;101804.16;12276854;19;19922;-85
2023/10/05 15:45:56;;;;;;;;;;;18.80;51.60;;;17.98;53.10;101800.00;12273225;19;19933;-84
2023/10/05 15:49:57;;;;;;;;;;;18.80;51.60;;;17.71;52.87;101782.44;12264691;19;19919;-83
2023/10/05 15:54:02;;;;;;;;;;;18.70;51.40;;;17.78;53.09;101798.72;12267435;19;19918;-84
2023/10/05 15:58:06;;;;;;;;;;;18.70;51.40;;;17.78;53.08;101804.00;12267261;19;19963;-84
2023/10/05 16:02:08;;;;;;;;;;;18.60;51.30;;;17.75;53.04;101802.41;12260031;19;19919;-83
2023/10/05 16:06:22;;;;;;;;;;;18.60;51.40;;;17.77;52.97;101818.16;12254042;19;19907;-84
2023/10/05 16:10:23;;;;;;;;;;;18.50;51.30;;;17.44;53.04;101775.47;12255272;19;19922;-84
2023/10/05 16:14:26;;;;;;;;;;;18.50;51.50;;;17.27;53.02;101762.53;12254494;19;19915;-84
2023/10/05 16:18:29;;;;;;;;;;;18.50;51.50;;;17.50;52.97;101818.22;12253394;19;20422;-84
2023/10/05 16:22:32;;;;;;;;;;;18.50;51.40;;;17.64;53.36;101845.41;12255077;19;19919;-84
2023/10/05 16:26:35;;;;;;;;;;;18.40;51.40;;;17.62;53.01;101849.09;12254530;19;19923;-84
2023/10/05 16:30:37;;;;;;;;;;;18.40;51.40;;;17.49;53.15;101838.50;12260134;19;20365;-84
2023/10/05 16:34:39;;;;;;;;;;;18.30;51.40;;;17.54;53.03;101839.06;12260245;19;19906;-85
2023/10/05 16:38:41;;;;;;;;;;;18.30;51.40;;;17.52;52.99;101854.16;12263685;19;19914;-84
2023/10/05 16:42:45;;;;;;;;;;;18.30;51.40;;;17.41;53.35;101843.44;12262915;19;19918;-84
2023/10/05 16:46:47;;;;;;;;;;;18.30;51.40;;;17.40;53.33;101854.97;12259854;19;20331;-84
2023/10/05 16:50:48;;;;;;;;;;;18.30;51.40;;;17.46;53.57;101871.25;12260109;19;19910;-83
2023/10/05 16:54:50;;;;;;;;;;;18.20;51.40;;;17.20;53.09;101838.66;12253212;19;19936;-84
2023/10/05 16:58:52;;;;;;;;;;;18.20;51.30;;;17.36;53.08;101886.03;12259886;19;20517;-84
2023/10/05 17:02:54;;;;;;;;;;;18.20;51.40;;;17.34;53.20;101887.06;12256803;19;19930;-84
2023/10/05 17:06:56;;;;;;;;;;;18.10;51.30;;;17.27;53.23;101888.41;12263040;19;19922;-84
2023/10/05 17:10:58;;;;;;;;;;;18.10;51.30;;;16.97;53.21;101852.47;12257352;19;19918;-83
2023/10/05 17:14:59;;;;;;;;;;;18.10;51.30;;;17.22;53.05;101900.09;12250030;19;19919;-85
2023/10/05 17:19:01;;;;;;;;;;;18.00;51.30;;;17.12;53.29;101899.03;12257355;19;20255;-84
2023/10/05 17:23:05;;;;;;;;;;;17.90;51.30;;;16.99;52.95;101908.66;12254990;19;19939;-84
2023/10/05 17:27:06;;;;;;;;;;;17.80;51.10;;;16.90;53.19;101909.22;12256686;19;19926;-84
2023/10/05 17:31:08;;;;;;;;;;;17.70;51.00;;;16.81;53.06;101906.22;12258549;19;19926;-84
2023/10/05 17:35:09;;;;;;;;;;;17.70;51.10;;;16.81;53.09;101923.84;12251913;19;20346;-84
2023/10/05 17:39:13;;;;;;;;;;;17.60;51.20;;;16.70;53.40;101913.94;12254389;19;19943;-84
2023/10/05 17:43:14;;;;;;;;;;;17.50;51.20;;;16.66;53.33;101915.06;12255074;19;19923;-84
2023/10/05 17:47:16;;;;;;;;;;;17.50;51.30;;;16.66;53.17;101922.13;12251127;19;20362;-85
2023/10/05 17:51:18;;;;;;;;;;;17.50;51.40;;;16.67;53.36;101937.84;12250942;19;19936;-83
2023/10/05 17:55:19;;;;;;;;;;;17.40;51.30;;;16.59;53.35;101937.47;12240478;19;19919;-84
2023/10/05 17:59:20;;;;;;;;;;;17.40;51.40;;;16.52;53.30;101930.88;12249443;19;19931;-84
2023/10/05 18:03:22;;;;;;;;;;;17.40;51.40;;;16.55;53.33;101931.56;12252996;19;19922;-83
2023/10/05 18:07:23;;;;;;;;;;;17.40;51.30;;;16.33;53.20;101905.63;12253314;19;19922;-83
2023/10/05 18:11:25;;;;;;;;;;;17.40;51.20;;;16.45;53.20;101945.41;12250860;19;19995;-84
2023/10/05 18:15:26;;;;;;;;;;;17.30;51.20;;;16.41;53.25;101943.88;12249531;19;20277;-84
2023/10/05 18:19:27;;;;;;;;;;;17.20;51.20;;;16.36;53.33;101957.31;12248893;19;19919;-84
2023/10/05 18:23:29;;;;;;;;;;;17.20;51.20;;;16.18;53.30;101937.34;12247943;19;19915;-84
2023/10/05 18:27:30;;;;;;;;;;;17.20;51.10;;;16.04;53.38;101928.47;12247919;19;19914;-83